sensor_id;sensor_type;location;lat;lon;timestamp;pressure;altitude;pressure_sealevel;temperature;humidity
5905;BME280;2978;42.012;24.880;2022-10-22T00:00:22;99719.03;;;10.94;70.96
5905;BME280;2978;42.012;24.880;2022-10-22T00:02:47;99719.03;;;10.94;71.34
5905;BME280;2978;42.012;24.880;2022-10-22T00:05:13;99716.22;;;10.89;71.73
5905;BME280;2978;42.012;24.880;2022-10-22T00:07:39;99713.81;;;10.93;71.31
5905;BME280;2978;42.012;24.880;2022-10-22T00:10:05;99717.88;;;10.90;71.62
5905;BME280;2978;42.012;24.880;2022-10-22T00:12:31;99707.97;;;10.89;71.59
5905;BME280;2978;42.012;24.880;2022-10-22T00:14:57;99708.91;;;10.78;71.89
5905;BME280;2978;42.012;24.880;2022-10-22T00:17:23;99706.41;;;10.77;71.27
5905;BME280;2978;42.012;24.880;2022-10-22T00:19:49;99695.59;;;10.70;71.63
5905;BME280;2978;42.012;24.880;2022-10-22T00:22:15;99695.09;;;10.73;71.21
5905;BME280;2978;42.012;24.880;2022-10-22T00:24:40;99695.09;;;10.73;71.58
5905;BME280;2978;42.012;24.880;2022-10-22T00:27:08;99691.16;;;10.69;71.48
5905;BME280;2978;42.012;24.880;2022-10-22T00:29:34;99688.16;;;10.71;71.25
5905;BME280;2978;42.012;24.880;2022-10-22T00:31:59;99685.66;;;10.69;71.07
5905;BME280;2978;42.012;24.880;2022-10-22T00:34:25;99667.25;;;10.70;71.26
5905;BME280;2978;42.012;24.880;2022-10-22T00:36:51;99659.13;;;10.58;71.26
5905;BME280;2978;42.012;24.880;2022-10-22T00:39:18;99671.19;;;10.57;71.41
5905;BME280;2978;42.012;24.880;2022-10-22T00:41:46;99674.19;;;10.56;71.86
5905;BME280;2978;42.012;24.880;2022-10-22T00:47:15;99681.59;;;10.55;71.59
5905;BME280;2978;42.012;24.880;2022-10-22T00:49:43;99673.63;;;10.54;71.28
5905;BME280;2978;42.012;24.880;2022-10-22T00:52:10;99672.13;;;10.46;71.45
5905;BME280;2978;42.012;24.880;2022-10-22T00:54:36;99661.13;;;10.46;71.74
5905;BME280;2978;42.012;24.880;2022-10-22T00:57:02;99674.38;;;10.49;71.71
5905;BME280;2978;42.012;24.880;2022-10-22T00:59:28;99665.03;;;10.50;71.28
5905;BME280;2978;42.012;24.880;2022-10-22T01:01:53;99667.78;;;10.50;70.92
5905;BME280;2978;42.012;24.880;2022-10-22T01:04:19;99669.88;;;10.60;71.02
5905;BME280;2978;42.012;24.880;2022-10-22T01:06:45;99664.63;;;10.58;70.81
5905;BME280;2978;42.012;24.880;2022-10-22T01:17:05;99663.22;;;10.39;70.99
5905;BME280;2978;42.012;24.880;2022-10-22T01:22:43;99647.16;;;10.31;70.85
5905;BME280;2978;42.012;24.880;2022-10-22T01:25:33;99647.25;;;10.19;71.15
5905;BME280;2978;42.012;24.880;2022-10-22T01:30:40;99621.31;;;9.99;71.32
5905;BME280;2978;42.012;24.880;2022-10-22T01:33:09;99640.16;;;10.07;71.25
5905;BME280;2978;42.012;24.880;2022-10-22T01:35:40;99635.88;;;10.11;70.77
5905;BME280;2978;42.012;24.880;2022-10-22T01:38:10;99641.50;;;10.21;70.45
5905;BME280;2978;42.012;24.880;2022-10-22T01:40:37;99644.09;;;10.28;69.94
5905;BME280;2978;42.012;24.880;2022-10-22T01:43:05;99640.50;;;10.27;70.03
5905;BME280;2978;42.012;24.880;2022-10-22T01:45:43;99646.66;;;10.34;69.80
5905;BME280;2978;42.012;24.880;2022-10-22T02:01:12;99647.75;;;10.33;68.62
5905;BME280;2978;42.012;24.880;2022-10-22T02:03:47;99651.47;;;10.27;68.95
5905;BME280;2978;42.012;24.880;2022-10-22T02:06:18;99636.03;;;10.21;68.93
5905;BME280;2978;42.012;24.880;2022-10-22T02:08:45;99644.00;;;10.23;68.94
5905;BME280;2978;42.012;24.880;2022-10-22T02:11:13;99636.53;;;10.18;69.15
5905;BME280;2978;42.012;24.880;2022-10-22T02:13:46;99643.09;;;10.17;69.02
5905;BME280;2978;42.012;24.880;2022-10-22T02:16:17;99640.00;;;10.13;69.44
5905;BME280;2978;42.012;24.880;2022-10-22T02:18:45;99638.84;;;10.09;69.74
5905;BME280;2978;42.012;24.880;2022-10-22T02:21:12;99648.25;;;10.13;69.37
5905;BME280;2978;42.012;24.880;2022-10-22T02:23:38;99665.50;;;10.09;69.69
5905;BME280;2978;42.012;24.880;2022-10-22T02:26:19;99645.81;;;10.00;69.69
5905;BME280;2978;42.012;24.880;2022-10-22T02:28:59;99662.22;;;9.95;69.49
5905;BME280;2978;42.012;24.880;2022-10-22T02:31:31;99654.28;;;9.99;69.88
5905;BME280;2978;42.012;24.880;2022-10-22T02:34:01;99666.19;;;10.04;69.45
5905;BME280;2978;42.012;24.880;2022-10-22T02:36:29;99659.91;;;10.04;69.38
5905;BME280;2978;42.012;24.880;2022-10-22T02:38:55;99668.69;;;10.06;69.45
5905;BME280;2978;42.012;24.880;2022-10-22T02:41:21;99661.53;;;10.05;69.44
5905;BME280;2978;42.012;24.880;2022-10-22T02:43:50;99660.22;;;10.07;68.69
5905;BME280;2978;42.012;24.880;2022-10-22T02:46:17;99648.41;;;10.07;68.73
5905;BME280;2978;42.012;24.880;2022-10-22T02:48:43;99660.13;;;10.02;69.21
5905;BME280;2978;42.012;24.880;2022-10-22T02:51:08;99655.47;;;10.03;68.98
5905;BME280;2978;42.012;24.880;2022-10-22T02:53:33;99651.06;;;10.02;69.16
5905;BME280;2978;42.012;24.880;2022-10-22T02:55:59;99647.13;;;9.98;69.47
5905;BME280;2978;42.012;24.880;2022-10-22T02:58:24;99645.97;;;9.94;69.38
5905;BME280;2978;42.012;24.880;2022-10-22T03:00:50;99651.47;;;9.94;69.61
5905;BME280;2978;42.012;24.880;2022-10-22T03:03:15;99650.31;;;9.90;69.29
5905;BME280;2978;42.012;24.880;2022-10-22T03:05:41;99645.63;;;9.90;69.63
5905;BME280;2978;42.012;24.880;2022-10-22T03:08:06;99636.00;;;9.88;69.36
5905;BME280;2978;42.012;24.880;2022-10-22T03:10:32;99643.22;;;9.94;69.13
5905;BME280;2978;42.012;24.880;2022-10-22T03:12:57;99627.16;;;9.86;68.85
5905;BME280;2978;42.012;24.880;2022-10-22T03:15:23;99636.00;;;9.88;68.90
5905;BME280;2978;42.012;24.880;2022-10-22T03:17:48;99632.81;;;9.96;68.83
5905;BME280;2978;42.012;24.880;2022-10-22T03:20:14;99646.56;;;9.96;68.44
5905;BME280;2978;42.012;24.880;2022-10-22T03:22:40;99649.63;;;9.99;68.19
5905;BME280;2978;42.012;24.880;2022-10-22T03:25:09;99637.81;;;9.99;67.76
5905;BME280;2978;42.012;24.880;2022-10-22T03:27:37;99641.13;;;10.01;67.67
5905;BME280;2978;42.012;24.880;2022-10-22T03:30:05;99649.97;;;10.03;67.60
5905;BME280;2978;42.012;24.880;2022-10-22T03:32:30;99629.91;;;10.02;67.54
5905;BME280;2978;42.012;24.880;2022-10-22T03:34:56;99632.31;;;9.99;67.61
5905;BME280;2978;42.012;24.880;2022-10-22T03:37:22;99627.91;;;9.98;67.36
5905;BME280;2978;42.012;24.880;2022-10-22T03:39:49;99643.53;;;10.09;67.49
5905;BME280;2978;42.012;24.880;2022-10-22T03:42:15;99628.31;;;10.06;67.42
5905;BME280;2978;42.012;24.880;2022-10-22T03:44:41;99630.22;;;10.06;66.73
5905;BME280;2978;42.012;24.880;2022-10-22T03:47:07;99629.41;;;10.05;66.81
5905;BME280;2978;42.012;24.880;2022-10-22T03:49:32;99625.75;;;10.00;66.90
5905;BME280;2978;42.012;24.880;2022-10-22T03:52:08;99631.56;;;10.03;66.46
5905;BME280;2978;42.012;24.880;2022-10-22T03:54:35;99637.31;;;10.02;66.47
5905;BME280;2978;42.012;24.880;2022-10-22T03:57:01;99648.78;;;9.99;66.70
5905;BME280;2978;42.012;24.880;2022-10-22T03:59:27;99641.81;;;9.91;67.42
5905;BME280;2978;42.012;24.880;2022-10-22T04:01:52;99640.38;;;9.89;67.37
5905;BME280;2978;42.012;24.880;2022-10-22T04:04:18;99649.72;;;9.88;67.44
5905;BME280;2978;42.012;24.880;2022-10-22T04:06:43;99638.41;;;9.84;67.62
5905;BME280;2978;42.012;24.880;2022-10-22T04:09:08;99637.97;;;9.92;67.37
5905;BME280;2978;42.012;24.880;2022-10-22T04:11:34;99639.66;;;9.93;67.60
5905;BME280;2978;42.012;24.880;2022-10-22T04:13:59;99632.50;;;9.92;67.72
5905;BME280;2978;42.012;24.880;2022-10-22T04:16:25;99626.19;;;9.92;67.06
5905;BME280;2978;42.012;24.880;2022-10-22T04:18:55;99634.31;;;9.87;66.98
5905;BME280;2978;42.012;24.880;2022-10-22T04:21:21;99640.13;;;9.74;67.37
5905;BME280;2978;42.012;24.880;2022-10-22T04:23:48;99655.13;;;9.83;66.95
5905;BME280;2978;42.012;24.880;2022-10-22T04:26:15;99658.03;;;9.93;67.27
5905;BME280;2978;42.012;24.880;2022-10-22T04:28:41;99665.28;;;9.99;70.77
5905;BME280;2978;42.012;24.880;2022-10-22T04:31:08;99661.47;;;10.00;72.08
5905;BME280;2978;42.012;24.880;2022-10-22T04:33:34;99654.19;;;9.94;71.06
5905;BME280;2978;42.012;24.880;2022-10-22T04:35:59;99650.47;;;10.00;71.17
5905;BME280;2978;42.012;24.880;2022-10-22T04:38:25;99654.47;;;9.92;70.36
5905;BME280;2978;42.012;24.880;2022-10-22T04:40:50;99662.53;;;9.99;68.95
5905;BME280;2978;42.012;24.880;2022-10-22T04:43:16;99648.25;;;9.97;68.81
5905;BME280;2978;42.012;24.880;2022-10-22T04:45:41;99661.53;;;10.05;69.17
5905;BME280;2978;42.012;24.880;2022-10-22T04:48:06;99666.09;;;10.11;68.96
5905;BME280;2978;42.012;24.880;2022-10-22T04:50:32;99663.31;;;10.28;68.68
5905;BME280;2978;42.012;24.880;2022-10-22T04:52:57;99661.16;;;10.30;67.18
5905;BME280;2978;42.012;24.880;2022-10-22T04:55:23;99664.31;;;10.38;65.92
5905;BME280;2978;42.012;24.880;2022-10-22T04:57:48;99665.16;;;10.39;65.68
5905;BME280;2978;42.012;24.880;2022-10-22T05:00:14;99666.13;;;10.33;65.08
5905;BME280;2978;42.012;24.880;2022-10-22T05:02:40;99672.56;;;10.38;64.87
5905;BME280;2978;42.012;24.880;2022-10-22T05:05:09;99666.81;;;10.40;64.37
5905;BME280;2978;42.012;24.880;2022-10-22T05:07:34;99650.38;;;10.45;63.88
5905;BME280;2978;42.012;24.880;2022-10-22T05:10:00;99644.06;;;10.44;63.74
5905;BME280;2978;42.012;24.880;2022-10-22T05:12:26;99645.84;;;10.34;63.80
5905;BME280;2978;42.012;24.880;2022-10-22T05:14:53;99622.94;;;10.28;63.96
5905;BME280;2978;42.012;24.880;2022-10-22T05:17:20;99615.59;;;10.17;64.10
5905;BME280;2978;42.012;24.880;2022-10-22T05:19:45;99615.59;;;10.17;64.22
5905;BME280;2978;42.012;24.880;2022-10-22T05:22:11;99627.69;;;10.16;64.29
5905;BME280;2978;42.012;24.880;2022-10-22T05:24:36;99622.59;;;10.25;63.91
5905;BME280;2978;42.012;24.880;2022-10-22T05:27:02;99620.38;;;10.22;63.68
5905;BME280;2978;42.012;24.880;2022-10-22T05:29:27;99618.84;;;10.31;63.55
5905;BME280;2978;42.012;24.880;2022-10-22T05:31:53;99615.03;;;10.15;63.89
5905;BME280;2978;42.012;24.880;2022-10-22T05:34:19;99617.78;;;10.15;64.20
5905;BME280;2978;42.012;24.880;2022-10-22T05:36:45;99625.88;;;10.22;63.71
5905;BME280;2978;42.012;24.880;2022-10-22T05:39:10;99617.25;;;10.01;64.05
5905;BME280;2978;42.012;24.880;2022-10-22T05:41:36;99632.69;;;10.19;63.29
5905;BME280;2978;42.012;24.880;2022-10-22T05:44:02;99635.97;;;10.38;63.08
5905;BME280;2978;42.012;24.880;2022-10-22T05:46:37;99635.25;;;10.64;62.30
5905;BME280;2978;42.012;24.880;2022-10-22T05:49:04;99635.22;;;10.80;61.28
5905;BME280;2978;42.012;24.880;2022-10-22T05:51:32;99644.25;;;10.97;60.69
5905;BME280;2978;42.012;24.880;2022-10-22T05:54:00;99647.25;;;11.17;60.18
5905;BME280;2978;42.012;24.880;2022-10-22T05:56:27;99656.00;;;11.36;61.27
5905;BME280;2978;42.012;24.880;2022-10-22T05:58:53;99646.31;;;11.33;63.50
5905;BME280;2978;42.012;24.880;2022-10-22T06:01:30;99630.00;;;11.49;65.25
5905;BME280;2978;42.012;24.880;2022-10-22T06:03:59;99619.09;;;11.10;62.21
5905;BME280;2978;42.012;24.880;2022-10-22T06:06:34;99620.50;;;10.91;60.68
5905;BME280;2978;42.012;24.880;2022-10-22T06:09:03;99609.91;;;11.00;60.42
5905;BME280;2978;42.012;24.880;2022-10-22T06:11:29;99613.78;;;11.04;62.18
5905;BME280;2978;42.012;24.880;2022-10-22T06:13:55;99602.34;;;11.12;63.38
5905;BME280;2978;42.012;24.880;2022-10-22T06:16:20;99609.41;;;11.29;60.92
5905;BME280;2978;42.012;24.880;2022-10-22T06:18:45;99601.03;;;11.19;59.88
5905;BME280;2978;42.012;24.880;2022-10-22T06:21:13;99614.44;;;11.38;61.85
5905;BME280;2978;42.012;24.880;2022-10-22T06:23:39;99616.28;;;11.54;66.45
5905;BME280;2978;42.012;24.880;2022-10-22T06:26:06;99629.28;;;11.63;68.69
5905;BME280;2978;42.012;24.880;2022-10-22T06:28:32;99636.66;;;11.79;69.34
5905;BME280;2978;42.012;24.880;2022-10-22T06:30:58;99636.53;;;11.96;70.05
5905;BME280;2978;42.012;24.880;2022-10-22T06:33:25;99634.91;;;12.00;69.78
5905;BME280;2978;42.012;24.880;2022-10-22T06:35:51;99631.06;;;12.01;69.01
5905;BME280;2978;42.012;24.880;2022-10-22T06:38:16;99629.59;;;11.93;69.58
5905;BME280;2978;42.012;24.880;2022-10-22T06:40:42;99639.97;;;12.13;69.34
5905;BME280;2978;42.012;24.880;2022-10-22T06:43:10;99645.31;;;12.29;68.52
5905;BME280;2978;42.012;24.880;2022-10-22T06:45:35;99636.78;;;12.31;68.15
5905;BME280;2978;42.012;24.880;2022-10-22T06:48:01;99650.63;;;12.36;67.86
5905;BME280;2978;42.012;24.880;2022-10-22T06:50:27;99656.09;;;12.31;68.07
5905;BME280;2978;42.012;24.880;2022-10-22T06:52:52;99653.94;;;12.38;67.82
5905;BME280;2978;42.012;24.880;2022-10-22T06:55:18;99651.28;;;12.48;67.62
5905;BME280;2978;42.012;24.880;2022-10-22T06:57:43;99650.78;;;12.61;66.93
5905;BME280;2978;42.012;24.880;2022-10-22T07:00:09;99654.28;;;12.88;66.57
5905;BME280;2978;42.012;24.880;2022-10-22T07:02:35;99657.13;;;13.03;65.90
5905;BME280;2978;42.012;24.880;2022-10-22T07:05:00;99653.81;;;13.06;65.00
5905;BME280;2978;42.012;24.880;2022-10-22T07:07:25;99656.69;;;13.26;64.68
5905;BME280;2978;42.012;24.880;2022-10-22T07:09:51;99661.94;;;13.33;64.31
5905;BME280;2978;42.012;24.880;2022-10-22T07:12:16;99648.69;;;13.30;64.64
5905;BME280;2978;42.012;24.880;2022-10-22T07:14:42;99660.84;;;13.39;63.80
5905;BME280;2978;42.012;24.880;2022-10-22T07:17:08;99675.50;;;13.39;63.47
5905;BME280;2978;42.012;24.880;2022-10-22T07:19:34;99676.84;;;13.32;63.74
5905;BME280;2978;42.012;24.880;2022-10-22T07:21:59;99678.19;;;13.19;63.78
5905;BME280;2978;42.012;24.880;2022-10-22T07:24:25;99678.25;;;13.34;63.71
5905;BME280;2978;42.012;24.880;2022-10-22T07:26:50;99671.69;;;13.50;63.33
5905;BME280;2978;42.012;24.880;2022-10-22T07:29:16;99671.69;;;13.55;62.67
5905;BME280;2978;42.012;24.880;2022-10-22T07:31:42;99670.28;;;13.48;62.18
5905;BME280;2978;42.012;24.880;2022-10-22T07:34:08;99665.03;;;13.46;62.40
5905;BME280;2978;42.012;24.880;2022-10-22T07:36:34;99662.81;;;13.48;62.63
5905;BME280;2978;42.012;24.880;2022-10-22T07:39:00;99663.94;;;13.47;62.55
5905;BME280;2978;42.012;24.880;2022-10-22T07:41:27;99662.06;;;13.63;62.30
5905;BME280;2978;42.012;24.880;2022-10-22T07:43:53;99665.63;;;13.69;61.71
5905;BME280;2978;42.012;24.880;2022-10-22T07:46:19;99660.13;;;13.74;61.94
5905;BME280;2978;42.012;24.880;2022-10-22T07:48:44;99658.75;;;13.86;61.50
5905;BME280;2978;42.012;24.880;2022-10-22T07:51:10;99649.94;;;13.99;60.82
5905;BME280;2978;42.012;24.880;2022-10-22T07:53:35;99648.00;;;14.10;60.23
5905;BME280;2978;42.012;24.880;2022-10-22T07:56:01;99647.72;;;14.21;60.00
5905;BME280;2978;42.012;24.880;2022-10-22T07:58:27;99654.38;;;14.40;59.56
5905;BME280;2978;42.012;24.880;2022-10-22T08:00:59;99647.47;;;14.48;58.57
5905;BME280;2978;42.012;24.880;2022-10-22T08:03:29;99654.38;;;14.55;58.17
5905;BME280;2978;42.012;24.880;2022-10-22T08:05:55;99651.84;;;14.69;58.26
5905;BME280;2978;42.012;24.880;2022-10-22T08:08:22;99651.88;;;14.64;58.09
5905;BME280;2978;42.012;24.880;2022-10-22T08:10:50;99649.91;;;14.64;57.81
5905;BME280;2978;42.012;24.880;2022-10-22T08:13:16;99647.69;;;14.77;57.58
5905;BME280;2978;42.012;24.880;2022-10-22T08:15:42;99655.09;;;14.96;56.37
5905;BME280;2978;42.012;24.880;2022-10-22T08:18:08;99654.78;;;15.13;55.30
5905;BME280;2978;42.012;24.880;2022-10-22T08:20:34;99654.72;;;15.23;55.23
5905;BME280;2978;42.012;24.880;2022-10-22T08:22:59;99655.25;;;15.30;55.06
5905;BME280;2978;42.012;24.880;2022-10-22T08:25:25;99646.38;;;15.33;54.95
5905;BME280;2978;42.012;24.880;2022-10-22T08:27:51;99640.00;;;15.27;55.21
5905;BME280;2978;42.012;24.880;2022-10-22T08:30:17;99647.50;;;15.32;55.19
5905;BME280;2978;42.012;24.880;2022-10-22T08:32:42;99640.53;;;15.34;55.09
5905;BME280;2978;42.012;24.880;2022-10-22T08:35:08;99647.16;;;15.38;54.88
5905;BME280;2978;42.012;24.880;2022-10-22T08:37:34;99639.16;;;15.37;54.64
5905;BME280;2978;42.012;24.880;2022-10-22T08:39:59;99642.69;;;15.52;54.61
5905;BME280;2978;42.012;24.880;2022-10-22T08:45:12;99634.94;;;15.54;54.04
5905;BME280;2978;42.012;24.880;2022-10-22T08:50:23;99639.16;;;15.86;52.80
5905;BME280;2978;42.012;24.880;2022-10-22T08:52:54;99635.81;;;15.89;52.37
5905;BME280;2978;42.012;24.880;2022-10-22T08:55:22;99635.00;;;15.88;52.37
5905;BME280;2978;42.012;24.880;2022-10-22T09:06:11;99632.66;;;16.34;50.62
5905;BME280;2978;42.012;24.880;2022-10-22T09:08:38;99612.44;;;16.33;50.49
5905;BME280;2978;42.012;24.880;2022-10-22T09:11:28;99606.00;;;16.38;50.17
5905;BME280;2978;42.012;24.880;2022-10-22T09:13:55;99598.56;;;16.33;50.09
5905;BME280;2978;42.012;24.880;2022-10-22T09:24:54;99599.78;;;16.46;50.53
5905;BME280;2978;42.012;24.880;2022-10-22T09:27:27;99590.34;;;16.52;50.49
5905;BME280;2978;42.012;24.880;2022-10-22T09:29:53;99592.75;;;16.58;50.49
5905;BME280;2978;42.012;24.880;2022-10-22T09:32:19;99585.16;;;16.69;50.95
5905;BME280;2978;42.012;24.880;2022-10-22T09:34:46;99594.63;;;16.68;51.00
5905;BME280;2978;42.012;24.880;2022-10-22T09:37:11;99591.19;;;16.76;50.85
5905;BME280;2978;42.012;24.880;2022-10-22T09:39:44;99588.34;;;16.81;50.66
5905;BME280;2978;42.012;24.880;2022-10-22T09:42:13;99575.00;;;16.83;51.25
5905;BME280;2978;42.012;24.880;2022-10-22T09:44:39;99575.22;;;16.86;51.59
5905;BME280;2978;42.012;24.880;2022-10-22T09:47:28;99575.94;;;16.97;51.26
5905;BME280;2978;42.012;24.880;2022-10-22T09:50:11;99583.91;;;17.04;51.02
5905;BME280;2978;42.012;24.880;2022-10-22T09:52:44;99582.88;;;17.18;50.19
5905;BME280;2978;42.012;24.880;2022-10-22T09:55:16;99581.69;;;17.24;49.70
5905;BME280;2978;42.012;24.880;2022-10-22T09:57:43;99569.53;;;17.39;49.50
5905;BME280;2978;42.012;24.880;2022-10-22T10:00:10;99570.38;;;17.58;48.96
5905;BME280;2978;42.012;24.880;2022-10-22T10:02:39;99559.94;;;17.68;48.28
5905;BME280;2978;42.012;24.880;2022-10-22T10:05:06;99550.97;;;17.71;47.68
5905;BME280;2978;42.012;24.880;2022-10-22T10:07:34;99547.84;;;17.78;47.82
5905;BME280;2978;42.012;24.880;2022-10-22T10:10:00;99530.84;;;17.79;47.88
5905;BME280;2978;42.012;24.880;2022-10-22T10:15:23;99528.94;;;17.75;47.95
5905;BME280;2978;42.012;24.880;2022-10-22T10:26:10;99521.25;;;17.53;49.06
5905;BME280;2978;42.012;24.880;2022-10-22T10:28:53;99523.94;;;17.58;48.79
5905;BME280;2978;42.012;24.880;2022-10-22T10:34:45;99505.09;;;17.55;49.23
5905;BME280;2978;42.012;24.880;2022-10-22T10:38:02;99507.72;;;17.65;49.23
5905;BME280;2978;42.012;24.880;2022-10-22T10:40:49;99492.00;;;17.74;48.94
5905;BME280;2978;42.012;24.880;2022-10-22T10:49:34;99482.97;;;17.96;48.56
5905;BME280;2978;42.012;24.880;2022-10-22T10:52:31;99467.41;;;17.95;48.80
5905;BME280;2978;42.012;24.880;2022-10-22T11:00:49;99448.47;;;17.97;49.32
5905;BME280;2978;42.012;24.880;2022-10-22T11:06:01;99432.94;;;18.10;48.69
5905;BME280;2978;42.012;24.880;2022-10-22T11:08:29;99423.75;;;18.23;48.30
5905;BME280;2978;42.012;24.880;2022-10-22T11:11:07;99414.06;;;18.34;48.11
5905;BME280;2978;42.012;24.880;2022-10-22T11:16:30;99427.78;;;18.57;47.63
5905;BME280;2978;42.012;24.880;2022-10-22T11:19:02;99410.66;;;18.50;47.97
5905;BME280;2978;42.012;24.880;2022-10-22T11:21:39;99410.25;;;18.57;47.13
5905;BME280;2978;42.012;24.880;2022-10-22T11:24:27;99407.38;;;18.62;47.15
5905;BME280;2978;42.012;24.880;2022-10-22T11:27:24;99398.78;;;18.72;46.82
5905;BME280;2978;42.012;24.880;2022-10-22T11:30:21;99391.22;;;18.86;46.40
5905;BME280;2978;42.012;24.880;2022-10-22T11:32:51;99387.78;;;18.89;46.72
5905;BME280;2978;42.012;24.880;2022-10-22T11:35:23;99376.97;;;18.87;46.76
5905;BME280;2978;42.012;24.880;2022-10-22T11:37:51;99380.66;;;18.96;46.69
5905;BME280;2978;42.012;24.880;2022-10-22T11:40:33;99378.88;;;19.00;46.75
5905;BME280;2978;42.012;24.880;2022-10-22T11:43:11;99374.88;;;18.93;46.71
5905;BME280;2978;42.012;24.880;2022-10-22T11:45:56;99374.88;;;18.93;46.77
5905;BME280;2978;42.012;24.880;2022-10-22T11:48:27;99368.16;;;18.94;46.85
5905;BME280;2978;42.012;24.880;2022-10-22T11:50:57;99371.59;;;19.13;46.25
5905;BME280;2978;42.012;24.880;2022-10-22T11:53:37;99370.22;;;19.24;45.83
5905;BME280;2978;42.012;24.880;2022-10-22T11:58:39;99360.09;;;19.28;45.56
5905;BME280;2978;42.012;24.880;2022-10-22T12:03:42;99346.72;;;19.39;44.68
5905;BME280;2978;42.012;24.880;2022-10-22T12:16:28;99330.56;;;19.80;43.08
5905;BME280;2978;42.012;24.880;2022-10-22T12:22:19;99336.50;;;19.87;42.29
5905;BME280;2978;42.012;24.880;2022-10-22T12:24:47;99345.41;;;19.97;42.06
5905;BME280;2978;42.012;24.880;2022-10-22T12:27:25;99321.94;;;20.07;41.88
5905;BME280;2978;42.012;24.880;2022-10-22T12:29:58;99329.09;;;20.22;41.23
5905;BME280;2978;42.012;24.880;2022-10-22T12:32:34;99317.59;;;20.23;41.17
5905;BME280;2978;42.012;24.880;2022-10-22T12:35:04;99307.75;;;20.26;41.06
5905;BME280;2978;42.012;24.880;2022-10-22T12:37:30;99309.38;;;20.27;41.13
5905;BME280;2978;42.012;24.880;2022-10-22T12:39:55;99317.47;;;20.37;41.16
5905;BME280;2978;42.012;24.880;2022-10-22T12:42:21;99315.34;;;20.42;40.66
5905;BME280;2978;42.012;24.880;2022-10-22T12:44:54;99304.00;;;20.47;40.40
5905;BME280;2978;42.012;24.880;2022-10-22T12:47:20;99300.41;;;20.47;40.97
5905;BME280;2978;42.012;24.880;2022-10-22T12:49:48;99298.41;;;20.47;40.53
5905;BME280;2978;42.012;24.880;2022-10-22T12:52:17;99298.91;;;20.41;40.73
5905;BME280;2978;42.012;24.880;2022-10-22T12:54:48;99278.50;;;20.32;40.84
5905;BME280;2978;42.012;24.880;2022-10-22T12:57:16;99286.09;;;20.48;40.41
5905;BME280;2978;42.012;24.880;2022-10-22T12:59:45;99285.13;;;20.53;40.78
5905;BME280;2978;42.012;24.880;2022-10-22T13:02:20;99282.81;;;20.72;40.42
5905;BME280;2978;42.012;24.880;2022-10-22T13:07:41;99284.16;;;20.83;40.13
5905;BME280;2978;42.012;24.880;2022-10-22T13:10:24;99273.13;;;20.86;40.21
5905;BME280;2978;42.012;24.880;2022-10-22T13:12:53;99278.03;;;20.98;40.09
5905;BME280;2978;42.012;24.880;2022-10-22T13:20:32;99282.97;;;20.92;39.90
5905;BME280;2978;42.012;24.880;2022-10-22T13:23:03;99277.88;;;20.94;40.15
5905;BME280;2978;42.012;24.880;2022-10-22T13:25:32;99282.84;;;21.06;39.91
5905;BME280;2978;42.012;24.880;2022-10-22T13:28:00;99291.84;;;21.20;39.35
5905;BME280;2978;42.012;24.880;2022-10-22T13:30:30;99279.84;;;21.28;39.13
5905;BME280;2978;42.012;24.880;2022-10-22T13:35:27;99273.63;;;21.60;38.36
5905;BME280;2978;42.012;24.880;2022-10-22T13:37:54;99276.41;;;21.77;38.59
5905;BME280;2978;42.012;24.880;2022-10-22T13:40:20;99271.00;;;21.72;38.57
5905;BME280;2978;42.012;24.880;2022-10-22T13:42:45;99272.16;;;21.63;38.52
5905;BME280;2978;42.012;24.880;2022-10-22T13:45:12;99275.63;;;21.60;38.27
5905;BME280;2978;42.012;24.880;2022-10-22T13:47:38;99260.63;;;21.64;38.49
5905;BME280;2978;42.012;24.880;2022-10-22T13:50:10;99267.50;;;21.75;38.43
5905;BME280;2978;42.012;24.880;2022-10-22T13:52:40;99257.59;;;21.86;38.34
5905;BME280;2978;42.012;24.880;2022-10-22T13:55:23;99257.56;;;21.95;38.14
5905;BME280;2978;42.012;24.880;2022-10-22T13:57:50;99258.41;;;21.87;38.16
5905;BME280;2978;42.012;24.880;2022-10-22T14:00:18;99249.72;;;21.80;38.72
5905;BME280;2978;42.012;24.880;2022-10-22T14:02:50;99260.09;;;21.71;38.73
5905;BME280;2978;42.012;24.880;2022-10-22T14:05:17;99236.50;;;21.51;38.80
5905;BME280;2978;42.012;24.880;2022-10-22T14:07:43;99247.75;;;21.25;39.18
5905;BME280;2978;42.012;24.880;2022-10-22T14:10:20;99247.78;;;21.08;39.85
5905;BME280;2978;42.012;24.880;2022-10-22T14:12:47;99242.03;;;20.88;40.15
5905;BME280;2978;42.012;24.880;2022-10-22T14:15:14;99240.72;;;20.77;40.30
5905;BME280;2978;42.012;24.880;2022-10-22T14:17:43;99237.13;;;20.68;40.70
5905;BME280;2978;42.012;24.880;2022-10-22T14:20:17;99223.47;;;20.58;40.84
5905;BME280;2978;42.012;24.880;2022-10-22T14:22:46;99224.66;;;20.57;41.14
5905;BME280;2978;42.012;24.880;2022-10-22T14:25:21;99222.97;;;20.56;41.12
5905;BME280;2978;42.012;24.880;2022-10-22T14:27:47;99220.03;;;20.52;41.43
5905;BME280;2978;42.012;24.880;2022-10-22T14:30:19;99223.66;;;20.53;41.72
5905;BME280;2978;42.012;24.880;2022-10-22T14:32:45;99226.63;;;20.48;41.62
5905;BME280;2978;42.012;24.880;2022-10-22T14:38:34;99230.03;;;20.28;42.18
5905;BME280;2978;42.012;24.880;2022-10-22T14:40:59;99231.53;;;20.17;42.80
5905;BME280;2978;42.012;24.880;2022-10-22T14:43:27;99229.47;;;20.08;43.16
5905;BME280;2978;42.012;24.880;2022-10-22T14:45:53;99226.69;;;20.00;44.35
5905;BME280;2978;42.012;24.880;2022-10-22T14:48:18;99229.44;;;19.91;44.48
5905;BME280;2978;42.012;24.880;2022-10-22T14:50:45;99222.91;;;19.87;44.74
5905;BME280;2978;42.012;24.880;2022-10-22T14:53:11;99227.97;;;19.77;45.43
5905;BME280;2978;42.012;24.880;2022-10-22T14:55:38;99230.03;;;19.63;45.66
5905;BME280;2978;42.012;24.880;2022-10-22T14:58:04;99225.88;;;19.52;46.58
5905;BME280;2978;42.012;24.880;2022-10-22T15:00:30;99227.34;;;19.49;47.28
5905;BME280;2978;42.012;24.880;2022-10-22T15:02:55;99233.22;;;19.39;47.84
5905;BME280;2978;42.012;24.880;2022-10-22T15:05:21;99215.72;;;19.25;48.20
5905;BME280;2978;42.012;24.880;2022-10-22T15:07:47;99216.19;;;19.19;48.53
5905;BME280;2978;42.012;24.880;2022-10-22T15:10:12;99223.34;;;19.11;49.12
5905;BME280;2978;42.012;24.880;2022-10-22T15:12:38;99219.34;;;18.95;49.80
5905;BME280;2978;42.012;24.880;2022-10-22T15:15:04;99211.88;;;18.82;49.94